Terminal Aerodrome Forecast
Issued by NWS

Home | Current Version | Previous Version | Graphics & Text | Print | Product List | Glossary On
Versions: 1 2 3 4 5 6 7 8 9 10 11 12 13 14 15 16 17 18 19 20
000
FTUS43 KFGF 190930 AAA
TAFBJI
TAF AMD
KBJI 190930Z 1909/2006 17004KT P6SM SKC
     FM191600 17008KT P6SM SCT035
     FM192300 18007KT P6SM BKN035
     FM200000 18006KT P6SM BKN025
     FM200100 18006KT P6SM BKN015
     FM200300 17006KT P6SM BKN008=

USA.gov is the U.S. government's official web portal to all federal, state and local government web resources and services.